sensor_id;sensor_type;location;lat;lon;timestamp;temperature;humidity
40960;DHT22;27842;52.272;8.052;2023-11-19T00:00:28;8.70;99.90
40960;DHT22;27842;52.272;8.052;2023-11-19T00:02:54;8.70;99.90
40960;DHT22;27842;52.272;8.052;2023-11-19T00:05:20;8.80;99.90
40960;DHT22;27842;52.272;8.052;2023-11-19T00:07:45;8.80;99.90
40960;DHT22;27842;52.272;8.052;2023-11-19T00:10:13;8.80;99.90
40960;DHT22;27842;52.272;8.052;2023-11-19T00:12:41;8.80;99.90
40960;DHT22;27842;52.272;8.052;2023-11-19T00:15:07;8.80;99.90
40960;DHT22;27842;52.272;8.052;2023-11-19T00:17:44;8.80;99.90
40960;DHT22;27842;52.272;8.052;2023-11-19T00:20:15;8.90;99.90
40960;DHT22;27842;52.272;8.052;2023-11-19T00:22:44;8.90;99.90
40960;DHT22;27842;52.272;8.052;2023-11-19T00:25:11;8.90;99.90
40960;DHT22;27842;52.272;8.052;2023-11-19T00:27:37;8.90;99.90
40960;DHT22;27842;52.272;8.052;2023-11-19T00:30:06;8.90;99.90
40960;DHT22;27842;52.272;8.052;2023-11-19T00:32:33;9.00;99.90
40960;DHT22;27842;52.272;8.052;2023-11-19T00:34:59;9.00;99.90
40960;DHT22;27842;52.272;8.052;2023-11-19T00:37:25;9.00;99.90
40960;DHT22;27842;52.272;8.052;2023-11-19T00:39:50;9.00;99.90
40960;DHT22;27842;52.272;8.052;2023-11-19T00:42:17;9.00;99.90
40960;DHT22;27842;52.272;8.052;2023-11-19T00:44:43;9.00;99.90
40960;DHT22;27842;52.272;8.052;2023-11-19T00:47:08;9.00;99.90
40960;DHT22;27842;52.272;8.052;2023-11-19T00:49:34;9.10;99.90
40960;DHT22;27842;52.272;8.052;2023-11-19T00:52:00;9.10;99.90
40960;DHT22;27842;52.272;8.052;2023-11-19T00:54:25;9.20;99.90
40960;DHT22;27842;52.272;8.052;2023-11-19T00:56:54;9.20;99.90
40960;DHT22;27842;52.272;8.052;2023-11-19T00:59:20;9.20;99.90
40960;DHT22;27842;52.272;8.052;2023-11-19T01:01:46;9.20;99.90
40960;DHT22;27842;52.272;8.052;2023-11-19T01:04:16;9.20;99.90
40960;DHT22;27842;52.272;8.052;2023-11-19T01:06:42;9.30;99.90
40960;DHT22;27842;52.272;8.052;2023-11-19T01:09:08;9.30;99.90
40960;DHT22;27842;52.272;8.052;2023-11-19T01:11:34;9.30;99.90
40960;DHT22;27842;52.272;8.052;2023-11-19T01:14:00;9.40;99.90
40960;DHT22;27842;52.272;8.052;2023-11-19T01:16:26;9.40;99.90
40960;DHT22;27842;52.272;8.052;2023-11-19T01:18:52;9.40;99.90
40960;DHT22;27842;52.272;8.052;2023-11-19T01:21:18;9.40;99.90
40960;DHT22;27842;52.272;8.052;2023-11-19T01:23:43;9.50;99.90
40960;DHT22;27842;52.272;8.052;2023-11-19T01:26:10;9.50;99.90
40960;DHT22;27842;52.272;8.052;2023-11-19T01:28:36;9.50;99.90
40960;DHT22;27842;52.272;8.052;2023-11-19T01:31:02;9.50;99.90
40960;DHT22;27842;52.272;8.052;2023-11-19T01:33:28;9.50;99.90
40960;DHT22;27842;52.272;8.052;2023-11-19T01:35:55;9.50;99.90
40960;DHT22;27842;52.272;8.052;2023-11-19T01:38:24;9.60;99.90
40960;DHT22;27842;52.272;8.052;2023-11-19T01:40:49;9.60;99.90
40960;DHT22;27842;52.272;8.052;2023-11-19T01:43:35;9.60;99.90
40960;DHT22;27842;52.272;8.052;2023-11-19T01:46:01;9.60;99.90
40960;DHT22;27842;52.272;8.052;2023-11-19T01:48:29;9.70;99.90
40960;DHT22;27842;52.272;8.052;2023-11-19T01:50:55;9.70;99.90
40960;DHT22;27842;52.272;8.052;2023-11-19T01:53:23;9.70;99.90
40960;DHT22;27842;52.272;8.052;2023-11-19T01:55:49;9.80;99.90
40960;DHT22;27842;52.272;8.052;2023-11-19T01:58:15;9.80;99.90
40960;DHT22;27842;52.272;8.052;2023-11-19T02:00:42;9.80;99.90
40960;DHT22;27842;52.272;8.052;2023-11-19T02:03:09;9.80;99.90
40960;DHT22;27842;52.272;8.052;2023-11-19T02:05:35;9.90;99.90
40960;DHT22;27842;52.272;8.052;2023-11-19T02:08:02;10.00;99.90
40960;DHT22;27842;52.272;8.052;2023-11-19T02:10:28;9.90;99.90
40960;DHT22;27842;52.272;8.052;2023-11-19T02:12:54;10.00;99.90
40960;DHT22;27842;52.272;8.052;2023-11-19T02:15:20;10.00;99.90
40960;DHT22;27842;52.272;8.052;2023-11-19T02:17:52;10.00;99.90
40960;DHT22;27842;52.272;8.052;2023-11-19T02:20:18;10.00;99.90
40960;DHT22;27842;52.272;8.052;2023-11-19T02:22:46;10.00;99.90
40960;DHT22;27842;52.272;8.052;2023-11-19T02:25:39;10.00;99.90
40960;DHT22;27842;52.272;8.052;2023-11-19T02:28:06;10.10;99.90
40960;DHT22;27842;52.272;8.052;2023-11-19T02:30:32;10.10;99.90
40960;DHT22;27842;52.272;8.052;2023-11-19T02:33:01;10.10;99.90
40960;DHT22;27842;52.272;8.052;2023-11-19T02:35:30;10.10;99.90
40960;DHT22;27842;52.272;8.052;2023-11-19T02:37:58;10.20;99.90
40960;DHT22;27842;52.272;8.052;2023-11-19T02:40:28;10.20;99.90
40960;DHT22;27842;52.272;8.052;2023-11-19T02:42:54;10.20;99.90
40960;DHT22;27842;52.272;8.052;2023-11-19T02:45:24;10.20;99.90
40960;DHT22;27842;52.272;8.052;2023-11-19T02:47:53;10.30;99.90
40960;DHT22;27842;52.272;8.052;2023-11-19T02:50:20;10.30;99.90
40960;DHT22;27842;52.272;8.052;2023-11-19T02:52:52;10.30;99.90
40960;DHT22;27842;52.272;8.052;2023-11-19T02:55:18;10.30;99.90
40960;DHT22;27842;52.272;8.052;2023-11-19T02:57:45;10.30;99.90
40960;DHT22;27842;52.272;8.052;2023-11-19T03:00:15;10.40;99.90
40960;DHT22;27842;52.272;8.052;2023-11-19T03:02:41;10.40;99.90
40960;DHT22;27842;52.272;8.052;2023-11-19T03:05:12;10.40;99.90
40960;DHT22;27842;52.272;8.052;2023-11-19T03:07:40;10.40;99.90
40960;DHT22;27842;52.272;8.052;2023-11-19T03:10:06;10.50;99.90
40960;DHT22;27842;52.272;8.052;2023-11-19T03:12:34;10.40;99.90
40960;DHT22;27842;52.272;8.052;2023-11-19T03:14:59;10.50;99.90
40960;DHT22;27842;52.272;8.052;2023-11-19T03:17:25;10.50;99.90
40960;DHT22;27842;52.272;8.052;2023-11-19T03:19:50;10.50;99.90
40960;DHT22;27842;52.272;8.052;2023-11-19T03:22:16;10.60;99.90
40960;DHT22;27842;52.272;8.052;2023-11-19T03:24:42;10.60;99.90
40960;DHT22;27842;52.272;8.052;2023-11-19T03:27:07;10.60;99.90
40960;DHT22;27842;52.272;8.052;2023-11-19T03:29:33;10.60;99.90
40960;DHT22;27842;52.272;8.052;2023-11-19T03:31:58;10.60;99.90
40960;DHT22;27842;52.272;8.052;2023-11-19T03:34:24;10.60;99.90
40960;DHT22;27842;52.272;8.052;2023-11-19T03:36:49;10.60;99.90
40960;DHT22;27842;52.272;8.052;2023-11-19T03:39:15;10.60;99.90
40960;DHT22;27842;52.272;8.052;2023-11-19T03:41:40;10.60;99.90
40960;DHT22;27842;52.272;8.052;2023-11-19T03:44:06;10.60;99.90
40960;DHT22;27842;52.272;8.052;2023-11-19T03:46:32;10.70;99.90
40960;DHT22;27842;52.272;8.052;2023-11-19T03:48:57;10.70;99.90
40960;DHT22;27842;52.272;8.052;2023-11-19T03:51:23;10.70;99.90
40960;DHT22;27842;52.272;8.052;2023-11-19T03:53:48;10.70;99.90
40960;DHT22;27842;52.272;8.052;2023-11-19T03:56:14;10.70;99.90
40960;DHT22;27842;52.272;8.052;2023-11-19T03:58:39;10.70;99.90
40960;DHT22;27842;52.272;8.052;2023-11-19T04:01:06;10.70;99.90
40960;DHT22;27842;52.272;8.052;2023-11-19T04:03:36;10.70;99.90
40960;DHT22;27842;52.272;8.052;2023-11-19T04:06:02;10.70;99.90
40960;DHT22;27842;52.272;8.052;2023-11-19T04:08:27;10.70;99.90
40960;DHT22;27842;52.272;8.052;2023-11-19T04:10:53;10.70;99.90
40960;DHT22;27842;52.272;8.052;2023-11-19T04:13:18;10.80;99.90
40960;DHT22;27842;52.272;8.052;2023-11-19T04:15:45;10.70;99.90
40960;DHT22;27842;52.272;8.052;2023-11-19T04:18:11;10.70;99.90
40960;DHT22;27842;52.272;8.052;2023-11-19T04:20:36;10.70;99.90
40960;DHT22;27842;52.272;8.052;2023-11-19T04:23:03;10.80;99.90
40960;DHT22;27842;52.272;8.052;2023-11-19T04:25:28;10.70;99.90
40960;DHT22;27842;52.272;8.052;2023-11-19T04:27:54;10.80;99.90
40960;DHT22;27842;52.272;8.052;2023-11-19T04:30:19;10.70;99.90
40960;DHT22;27842;52.272;8.052;2023-11-19T04:32:45;10.70;99.90
40960;DHT22;27842;52.272;8.052;2023-11-19T04:35:10;10.70;99.90
40960;DHT22;27842;52.272;8.052;2023-11-19T04:37:37;10.80;99.90
40960;DHT22;27842;52.272;8.052;2023-11-19T04:40:03;10.80;99.90
40960;DHT22;27842;52.272;8.052;2023-11-19T04:42:29;10.80;99.90
40960;DHT22;27842;52.272;8.052;2023-11-19T04:44:55;10.80;99.90
40960;DHT22;27842;52.272;8.052;2023-11-19T04:47:21;10.80;99.90
40960;DHT22;27842;52.272;8.052;2023-11-19T04:49:46;10.80;99.90
40960;DHT22;27842;52.272;8.052;2023-11-19T04:52:12;10.80;99.90
40960;DHT22;27842;52.272;8.052;2023-11-19T04:54:44;10.80;99.90
40960;DHT22;27842;52.272;8.052;2023-11-19T04:57:10;10.80;99.90
40960;DHT22;27842;52.272;8.052;2023-11-19T04:59:39;10.80;99.90
40960;DHT22;27842;52.272;8.052;2023-11-19T05:02:05;10.80;99.90
40960;DHT22;27842;52.272;8.052;2023-11-19T05:04:31;10.80;99.90
40960;DHT22;27842;52.272;8.052;2023-11-19T05:06:57;10.80;99.90
40960;DHT22;27842;52.272;8.052;2023-11-19T05:09:23;10.80;99.90
40960;DHT22;27842;52.272;8.052;2023-11-19T05:11:48;10.80;99.90
40960;DHT22;27842;52.272;8.052;2023-11-19T05:14:14;10.90;99.90
40960;DHT22;27842;52.272;8.052;2023-11-19T05:16:40;10.90;99.90
40960;DHT22;27842;52.272;8.052;2023-11-19T05:19:08;10.90;99.90
40960;DHT22;27842;52.272;8.052;2023-11-19T05:21:34;10.90;99.90
40960;DHT22;27842;52.272;8.052;2023-11-19T05:24:02;10.90;99.90
40960;DHT22;27842;52.272;8.052;2023-11-19T05:26:30;10.90;99.90
40960;DHT22;27842;52.272;8.052;2023-11-19T05:28:56;10.90;99.90
40960;DHT22;27842;52.272;8.052;2023-11-19T05:31:21;10.90;99.90
40960;DHT22;27842;52.272;8.052;2023-11-19T05:33:47;10.90;99.90
40960;DHT22;27842;52.272;8.052;2023-11-19T05:36:13;10.90;99.90
40960;DHT22;27842;52.272;8.052;2023-11-19T05:38:38;10.90;99.90
40960;DHT22;27842;52.272;8.052;2023-11-19T05:41:05;10.90;99.90
40960;DHT22;27842;52.272;8.052;2023-11-19T05:43:31;11.00;99.90
40960;DHT22;27842;52.272;8.052;2023-11-19T05:45:56;10.90;99.90
40960;DHT22;27842;52.272;8.052;2023-11-19T05:48:22;10.90;99.90
40960;DHT22;27842;52.272;8.052;2023-11-19T05:50:48;10.90;99.90
40960;DHT22;27842;52.272;8.052;2023-11-19T05:53:15;11.00;99.90
40960;DHT22;27842;52.272;8.052;2023-11-19T05:55:41;11.00;99.90
40960;DHT22;27842;52.272;8.052;2023-11-19T05:58:22;11.00;99.90
40960;DHT22;27842;52.272;8.052;2023-11-19T06:00:48;11.00;99.90
40960;DHT22;27842;52.272;8.052;2023-11-19T06:03:16;10.90;99.90
40960;DHT22;27842;52.272;8.052;2023-11-19T06:05:44;10.90;99.90
40960;DHT22;27842;52.272;8.052;2023-11-19T06:08:11;10.90;99.90
40960;DHT22;27842;52.272;8.052;2023-11-19T06:10:39;10.90;99.90
40960;DHT22;27842;52.272;8.052;2023-11-19T06:13:04;10.90;99.90
40960;DHT22;27842;52.272;8.052;2023-11-19T06:15:30;11.00;99.90
40960;DHT22;27842;52.272;8.052;2023-11-19T06:17:58;10.90;99.90
40960;DHT22;27842;52.272;8.052;2023-11-19T06:20:25;10.90;99.90
40960;DHT22;27842;52.272;8.052;2023-11-19T06:22:50;10.90;99.90
40960;DHT22;27842;52.272;8.052;2023-11-19T06:25:16;10.90;99.90
40960;DHT22;27842;52.272;8.052;2023-11-19T06:27:42;10.90;99.90
40960;DHT22;27842;52.272;8.052;2023-11-19T06:30:08;10.90;99.90
40960;DHT22;27842;52.272;8.052;2023-11-19T06:32:34;10.90;99.90
40960;DHT22;27842;52.272;8.052;2023-11-19T06:35:00;11.00;99.90
40960;DHT22;27842;52.272;8.052;2023-11-19T06:37:25;10.90;99.90
40960;DHT22;27842;52.272;8.052;2023-11-19T06:39:52;11.00;99.90
40960;DHT22;27842;52.272;8.052;2023-11-19T06:42:18;11.00;99.90
40960;DHT22;27842;52.272;8.052;2023-11-19T06:44:43;11.00;99.90
40960;DHT22;27842;52.272;8.052;2023-11-19T06:47:09;11.00;99.90
40960;DHT22;27842;52.272;8.052;2023-11-19T06:49:34;10.90;99.90
40960;DHT22;27842;52.272;8.052;2023-11-19T06:52:00;10.90;99.90
40960;DHT22;27842;52.272;8.052;2023-11-19T06:54:26;10.90;99.90
40960;DHT22;27842;52.272;8.052;2023-11-19T06:56:51;10.90;99.90
40960;DHT22;27842;52.272;8.052;2023-11-19T06:59:17;10.90;99.90
40960;DHT22;27842;52.272;8.052;2023-11-19T07:01:42;10.90;99.90
40960;DHT22;27842;52.272;8.052;2023-11-19T07:04:13;10.90;99.90
40960;DHT22;27842;52.272;8.052;2023-11-19T07:06:39;10.90;99.90
40960;DHT22;27842;52.272;8.052;2023-11-19T07:09:07;10.90;99.90
40960;DHT22;27842;52.272;8.052;2023-11-19T07:11:36;10.90;99.90
40960;DHT22;27842;52.272;8.052;2023-11-19T07:14:02;10.90;99.90
40960;DHT22;27842;52.272;8.052;2023-11-19T07:16:28;10.90;99.90
40960;DHT22;27842;52.272;8.052;2023-11-19T07:18:53;10.90;99.90
40960;DHT22;27842;52.272;8.052;2023-11-19T07:21:19;10.90;99.90
40960;DHT22;27842;52.272;8.052;2023-11-19T07:23:45;10.90;99.90
40960;DHT22;27842;52.272;8.052;2023-11-19T07:26:11;10.90;99.90
40960;DHT22;27842;52.272;8.052;2023-11-19T07:28:37;10.90;99.90
40960;DHT22;27842;52.272;8.052;2023-11-19T07:31:05;10.90;99.90
40960;DHT22;27842;52.272;8.052;2023-11-19T07:33:33;10.90;99.90
40960;DHT22;27842;52.272;8.052;2023-11-19T07:35:59;10.90;99.90
40960;DHT22;27842;52.272;8.052;2023-11-19T07:38:24;10.90;99.90
40960;DHT22;27842;52.272;8.052;2023-11-19T07:40:50;10.90;99.90
40960;DHT22;27842;52.272;8.052;2023-11-19T07:43:16;10.90;99.90
40960;DHT22;27842;52.272;8.052;2023-11-19T07:45:41;10.90;99.90
40960;DHT22;27842;52.272;8.052;2023-11-19T07:48:10;10.90;99.90
40960;DHT22;27842;52.272;8.052;2023-11-19T07:50:38;10.90;99.90
40960;DHT22;27842;52.272;8.052;2023-11-19T07:53:06;10.90;99.90
40960;DHT22;27842;52.272;8.052;2023-11-19T07:55:33;10.90;99.90
40960;DHT22;27842;52.272;8.052;2023-11-19T07:57:58;10.90;99.90
40960;DHT22;27842;52.272;8.052;2023-11-19T08:00:24;10.90;99.90
40960;DHT22;27842;52.272;8.052;2023-11-19T08:02:49;11.00;99.90
40960;DHT22;27842;52.272;8.052;2023-11-19T08:05:15;11.00;99.90
40960;DHT22;27842;52.272;8.052;2023-11-19T08:07:41;11.00;99.90
40960;DHT22;27842;52.272;8.052;2023-11-19T08:10:07;11.00;99.90
40960;DHT22;27842;52.272;8.052;2023-11-19T08:12:35;11.00;99.90
40960;DHT22;27842;52.272;8.052;2023-11-19T08:15:05;11.00;99.90
40960;DHT22;27842;52.272;8.052;2023-11-19T08:17:30;11.00;99.90
40960;DHT22;27842;52.272;8.052;2023-11-19T08:19:56;11.10;99.90
40960;DHT22;27842;52.272;8.052;2023-11-19T08:22:22;11.10;99.90
40960;DHT22;27842;52.272;8.052;2023-11-19T08:24:48;11.10;99.90
40960;DHT22;27842;52.272;8.052;2023-11-19T08:27:14;11.10;99.90
40960;DHT22;27842;52.272;8.052;2023-11-19T08:29:39;11.10;99.90
40960;DHT22;27842;52.272;8.052;2023-11-19T08:32:06;11.10;99.90
40960;DHT22;27842;52.272;8.052;2023-11-19T08:34:32;11.10;99.90
40960;DHT22;27842;52.272;8.052;2023-11-19T08:36:58;11.10;99.90
40960;DHT22;27842;52.272;8.052;2023-11-19T08:39:23;11.10;99.90
40960;DHT22;27842;52.272;8.052;2023-11-19T08:41:49;11.10;99.90
40960;DHT22;27842;52.272;8.052;2023-11-19T08:44:16;11.10;99.90
40960;DHT22;27842;52.272;8.052;2023-11-19T08:46:51;11.10;99.90
40960;DHT22;27842;52.272;8.052;2023-11-19T08:49:17;11.10;99.90
40960;DHT22;27842;52.272;8.052;2023-11-19T08:51:42;11.10;99.90
40960;DHT22;27842;52.272;8.052;2023-11-19T08:54:08;11.10;99.90
40960;DHT22;27842;52.272;8.052;2023-11-19T08:56:34;11.10;99.90
40960;DHT22;27842;52.272;8.052;2023-11-19T08:59:01;11.10;99.90
40960;DHT22;27842;52.272;8.052;2023-11-19T09:01:26;11.10;99.90
40960;DHT22;27842;52.272;8.052;2023-11-19T09:03:52;11.10;99.90
40960;DHT22;27842;52.272;8.052;2023-11-19T09:06:18;11.10;99.90
40960;DHT22;27842;52.272;8.052;2023-11-19T09:08:43;11.10;99.90
40960;DHT22;27842;52.272;8.052;2023-11-19T09:11:09;11.10;99.90
40960;DHT22;27842;52.272;8.052;2023-11-19T09:13:35;11.10;99.90
40960;DHT22;27842;52.272;8.052;2023-11-19T09:16:01;11.10;99.90
40960;DHT22;27842;52.272;8.052;2023-11-19T09:18:30;11.10;99.90
40960;DHT22;27842;52.272;8.052;2023-11-19T09:20:55;11.10;99.90
40960;DHT22;27842;52.272;8.052;2023-11-19T09:23:21;11.20;99.90
40960;DHT22;27842;52.272;8.052;2023-11-19T09:25:47;11.20;99.90
40960;DHT22;27842;52.272;8.052;2023-11-19T09:28:12;11.20;99.90
40960;DHT22;27842;52.272;8.052;2023-11-19T09:30:39;11.20;99.90
40960;DHT22;27842;52.272;8.052;2023-11-19T09:33:05;11.20;99.90
40960;DHT22;27842;52.272;8.052;2023-11-19T09:35:31;11.20;99.90
40960;DHT22;27842;52.272;8.052;2023-11-19T09:37:56;11.20;99.90
40960;DHT22;27842;52.272;8.052;2023-11-19T09:40:23;11.30;99.90
40960;DHT22;27842;52.272;8.052;2023-11-19T09:42:48;11.30;99.90
40960;DHT22;27842;52.272;8.052;2023-11-19T09:45:15;11.40;99.90
40960;DHT22;27842;52.272;8.052;2023-11-19T09:47:45;11.40;99.90
40960;DHT22;27842;52.272;8.052;2023-11-19T09:50:18;11.50;99.90
40960;DHT22;27842;52.272;8.052;2023-11-19T09:52:45;11.50;99.90
40960;DHT22;27842;52.272;8.052;2023-11-19T09:55:11;11.50;99.90
40960;DHT22;27842;52.272;8.052;2023-11-19T09:57:38;11.50;99.90
40960;DHT22;27842;52.272;8.052;2023-11-19T10:00:05;11.50;99.90
40960;DHT22;27842;52.272;8.052;2023-11-19T10:02:33;11.50;99.90
40960;DHT22;27842;52.272;8.052;2023-11-19T10:05:04;11.50;99.90
40960;DHT22;27842;52.272;8.052;2023-11-19T10:07:31;11.50;99.90
40960;DHT22;27842;52.272;8.052;2023-11-19T10:10:01;11.50;99.90
40960;DHT22;27842;52.272;8.052;2023-11-19T10:12:29;11.50;99.90
40960;DHT22;27842;52.272;8.052;2023-11-19T10:14:59;11.50;99.90
40960;DHT22;27842;52.272;8.052;2023-11-19T10:17:34;11.50;99.90
40960;DHT22;27842;52.272;8.052;2023-11-19T10:20:00;11.60;99.90
40960;DHT22;27842;52.272;8.052;2023-11-19T10:22:27;11.60;99.90
40960;DHT22;27842;52.272;8.052;2023-11-19T10:24:53;11.60;99.90
40960;DHT22;27842;52.272;8.052;2023-11-19T10:27:19;11.60;99.90
40960;DHT22;27842;52.272;8.052;2023-11-19T10:29:48;11.50;99.90
40960;DHT22;27842;52.272;8.052;2023-11-19T10:32:14;11.60;99.90
40960;DHT22;27842;52.272;8.052;2023-11-19T10:34:42;11.50;99.90
40960;DHT22;27842;52.272;8.052;2023-11-19T10:37:09;11.60;99.90
40960;DHT22;27842;52.272;8.052;2023-11-19T10:39:54;11.60;99.90
40960;DHT22;27842;52.272;8.052;2023-11-19T10:42:22;11.50;99.90
40960;DHT22;27842;52.272;8.052;2023-11-19T10:44:48;11.50;99.90
40960;DHT22;27842;52.272;8.052;2023-11-19T10:47:15;11.50;99.90
40960;DHT22;27842;52.272;8.052;2023-11-19T10:49:44;11.50;99.90
40960;DHT22;27842;52.272;8.052;2023-11-19T10:52:12;11.50;99.90
40960;DHT22;27842;52.272;8.052;2023-11-19T10:54:44;11.50;99.90
40960;DHT22;27842;52.272;8.052;2023-11-19T10:57:12;11.50;99.90
40960;DHT22;27842;52.272;8.052;2023-11-19T10:59:41;11.50;99.90
40960;DHT22;27842;52.272;8.052;2023-11-19T11:02:09;11.50;99.90
40960;DHT22;27842;52.272;8.052;2023-11-19T11:04:40;11.50;99.90
40960;DHT22;27842;52.272;8.052;2023-11-19T11:07:07;11.40;99.90
40960;DHT22;27842;52.272;8.052;2023-11-19T11:09:34;11.40;99.90
40960;DHT22;27842;52.272;8.052;2023-11-19T11:12:01;11.40;99.90
40960;DHT22;27842;52.272;8.052;2023-11-19T11:14:27;11.40;99.90
40960;DHT22;27842;52.272;8.052;2023-11-19T11:16:53;11.40;99.90
40960;DHT22;27842;52.272;8.052;2023-11-19T11:19:20;11.40;99.90
40960;DHT22;27842;52.272;8.052;2023-11-19T11:21:50;11.40;99.90
40960;DHT22;27842;52.272;8.052;2023-11-19T11:32:39;11.30;99.90
40960;DHT22;27842;52.272;8.052;2023-11-19T11:35:30;11.40;99.90
40960;DHT22;27842;52.272;8.052;2023-11-19T11:38:06;11.30;99.90
40960;DHT22;27842;52.272;8.052;2023-11-19T11:40:32;11.30;99.90
40960;DHT22;27842;52.272;8.052;2023-11-19T11:42:58;11.30;99.90
40960;DHT22;27842;52.272;8.052;2023-11-19T11:45:38;11.30;99.90
40960;DHT22;27842;52.272;8.052;2023-11-19T11:50:36;11.30;99.90
40960;DHT22;27842;52.272;8.052;2023-11-19T11:55:34;11.30;99.90
40960;DHT22;27842;52.272;8.052;2023-11-19T11:58:02;11.40;99.90
40960;DHT22;27842;52.272;8.052;2023-11-19T12:00:31;11.40;99.90
40960;DHT22;27842;52.272;8.052;2023-11-19T12:02:59;11.40;99.90
40960;DHT22;27842;52.272;8.052;2023-11-19T12:05:25;11.40;99.90
40960;DHT22;27842;52.272;8.052;2023-11-19T12:08:01;11.50;99.90
40960;DHT22;27842;52.272;8.052;2023-11-19T12:10:30;11.50;99.90
40960;DHT22;27842;52.272;8.052;2023-11-19T12:12:59;11.50;99.90
40960;DHT22;27842;52.272;8.052;2023-11-19T12:15:26;11.50;99.90
40960;DHT22;27842;52.272;8.052;2023-11-19T12:17:53;11.50;99.90
40960;DHT22;27842;52.272;8.052;2023-11-19T12:20:24;11.50;99.90
40960;DHT22;27842;52.272;8.052;2023-11-19T12:22:51;11.50;99.90
40960;DHT22;27842;52.272;8.052;2023-11-19T12:25:18;11.50;99.90
40960;DHT22;27842;52.272;8.052;2023-11-19T12:27:51;11.50;99.90
40960;DHT22;27842;52.272;8.052;2023-11-19T12:30:24;11.50;99.90
40960;DHT22;27842;52.272;8.052;2023-11-19T12:32:51;11.60;99.90
40960;DHT22;27842;52.272;8.052;2023-11-19T12:35:19;11.60;99.90
40960;DHT22;27842;52.272;8.052;2023-11-19T12:37:49;11.60;99.90
40960;DHT22;27842;52.272;8.052;2023-11-19T12:40:20;11.60;99.90
40960;DHT22;27842;52.272;8.052;2023-11-19T12:42:51;11.60;99.90
40960;DHT22;27842;52.272;8.052;2023-11-19T12:45:18;11.60;99.90
40960;DHT22;27842;52.272;8.052;2023-11-19T12:47:45;11.60;99.90
40960;DHT22;27842;52.272;8.052;2023-11-19T12:50:15;11.60;99.90
40960;DHT22;27842;52.272;8.052;2023-11-19T12:52:42;11.70;99.90
40960;DHT22;27842;52.272;8.052;2023-11-19T12:55:25;11.70;99.90
40960;DHT22;27842;52.272;8.052;2023-11-19T12:57:52;11.70;99.90
40960;DHT22;27842;52.272;8.052;2023-11-19T13:00:19;11.70;99.90
40960;DHT22;27842;52.272;8.052;2023-11-19T13:10:26;11.80;99.90
40960;DHT22;27842;52.272;8.052;2023-11-19T13:13:08;11.80;99.90
40960;DHT22;27842;52.272;8.052;2023-11-19T13:15:35;11.80;99.90
40960;DHT22;27842;52.272;8.052;2023-11-19T13:18:01;11.80;99.90
40960;DHT22;27842;52.272;8.052;2023-11-19T13:20:28;11.80;99.90
40960;DHT22;27842;52.272;8.052;2023-11-19T13:23:02;11.80;99.90
40960;DHT22;27842;52.272;8.052;2023-11-19T13:25:28;11.80;99.90
40960;DHT22;27842;52.272;8.052;2023-11-19T13:27:55;11.90;99.90
40960;DHT22;27842;52.272;8.052;2023-11-19T13:30:21;11.80;99.90
40960;DHT22;27842;52.272;8.052;2023-11-19T13:32:48;11.80;99.90
40960;DHT22;27842;52.272;8.052;2023-11-19T13:35:14;11.90;99.90
40960;DHT22;27842;52.272;8.052;2023-11-19T13:37:40;11.90;99.90
40960;DHT22;27842;52.272;8.052;2023-11-19T13:40:09;11.90;99.90
40960;DHT22;27842;52.272;8.052;2023-11-19T13:42:38;11.90;99.90
40960;DHT22;27842;52.272;8.052;2023-11-19T13:47:36;11.90;99.90
40960;DHT22;27842;52.272;8.052;2023-11-19T13:50:02;11.90;99.90
40960;DHT22;27842;52.272;8.052;2023-11-19T13:52:31;11.90;99.90
40960;DHT22;27842;52.272;8.052;2023-11-19T13:54:57;11.90;99.90
40960;DHT22;27842;52.272;8.052;2023-11-19T13:57:22;11.90;99.90
40960;DHT22;27842;52.272;8.052;2023-11-19T13:59:48;11.90;99.90
40960;DHT22;27842;52.272;8.052;2023-11-19T14:02:13;11.90;99.90
40960;DHT22;27842;52.272;8.052;2023-11-19T14:04:39;11.90;99.90
40960;DHT22;27842;52.272;8.052;2023-11-19T14:07:04;11.90;99.90
40960;DHT22;27842;52.272;8.052;2023-11-19T14:09:30;11.90;99.90
40960;DHT22;27842;52.272;8.052;2023-11-19T14:11:55;11.90;99.90
40960;DHT22;27842;52.272;8.052;2023-11-19T14:14:21;11.90;99.90
40960;DHT22;27842;52.272;8.052;2023-11-19T14:16:47;11.90;99.90
40960;DHT22;27842;52.272;8.052;2023-11-19T14:19:13;11.90;99.90
40960;DHT22;27842;52.272;8.052;2023-11-19T14:21:39;11.90;99.90
40960;DHT22;27842;52.272;8.052;2023-11-19T14:24:05;11.90;99.90
40960;DHT22;27842;52.272;8.052;2023-11-19T14:26:30;11.90;99.90
40960;DHT22;27842;52.272;8.052;2023-11-19T14:28:56;11.90;99.90
40960;DHT22;27842;52.272;8.052;2023-11-19T14:31:22;11.90;99.90
40960;DHT22;27842;52.272;8.052;2023-11-19T14:33:47;11.90;99.90
40960;DHT22;27842;52.272;8.052;2023-11-19T14:36:14;11.90;99.90
40960;DHT22;27842;52.272;8.052;2023-11-19T14:38:40;11.90;99.90
40960;DHT22;27842;52.272;8.052;2023-11-19T14:41:06;11.90;99.90
40960;DHT22;27842;52.272;8.052;2023-11-19T14:43:31;11.80;99.90
40960;DHT22;27842;52.272;8.052;2023-11-19T14:45:57;11.80;99.90
40960;DHT22;27842;52.272;8.052;2023-11-19T14:48:23;11.80;99.90
40960;DHT22;27842;52.272;8.052;2023-11-19T14:50:48;11.80;99.90
40960;DHT22;27842;52.272;8.052;2023-11-19T14:53:15;11.80;99.90
40960;DHT22;27842;52.272;8.052;2023-11-19T14:55:41;11.80;99.90
40960;DHT22;27842;52.272;8.052;2023-11-19T14:58:06;11.80;99.90
40960;DHT22;27842;52.272;8.052;2023-11-19T15:00:33;11.70;99.90
40960;DHT22;27842;52.272;8.052;2023-11-19T15:02:59;11.70;99.90
40960;DHT22;27842;52.272;8.052;2023-11-19T15:05:24;11.70;99.90
40960;DHT22;27842;52.272;8.052;2023-11-19T15:07:50;11.60;99.90
40960;DHT22;27842;52.272;8.052;2023-11-19T15:10:16;11.60;99.90
40960;DHT22;27842;52.272;8.052;2023-11-19T15:12:41;11.60;99.90
40960;DHT22;27842;52.272;8.052;2023-11-19T15:15:08;11.60;99.90
40960;DHT22;27842;52.272;8.052;2023-11-19T15:17:40;11.50;99.90
40960;DHT22;27842;52.272;8.052;2023-11-19T15:20:06;11.50;99.90
40960;DHT22;27842;52.272;8.052;2023-11-19T15:22:32;11.60;99.90
40960;DHT22;27842;52.272;8.052;2023-11-19T15:24:58;11.60;99.90
40960;DHT22;27842;52.272;8.052;2023-11-19T15:27:23;11.50;99.90
40960;DHT22;27842;52.272;8.052;2023-11-19T15:29:49;11.50;99.90
40960;DHT22;27842;52.272;8.052;2023-11-19T15:32:14;11.50;99.90
40960;DHT22;27842;52.272;8.052;2023-11-19T15:34:40;11.50;99.90
40960;DHT22;27842;52.272;8.052;2023-11-19T15:37:07;11.50;99.90
40960;DHT22;27842;52.272;8.052;2023-11-19T15:39:33;11.50;99.90
40960;DHT22;27842;52.272;8.052;2023-11-19T15:42:01;11.50;99.90
40960;DHT22;27842;52.272;8.052;2023-11-19T15:44:27;11.50;99.90
40960;DHT22;27842;52.272;8.052;2023-11-19T15:46:54;11.50;99.90
40960;DHT22;27842;52.272;8.052;2023-11-19T15:49:20;11.60;99.90
40960;DHT22;27842;52.272;8.052;2023-11-19T15:51:46;11.60;99.90
40960;DHT22;27842;52.272;8.052;2023-11-19T15:54:11;11.50;99.90